createdAt,value
2023-04-03T00:01:06.452Z,20.10
2023-04-03T00:03:39.465Z,20.00
2023-04-03T00:06:13.472Z,20.00
2023-04-03T00:08:46.747Z,20.00
2023-04-03T00:11:19.638Z,20.00
2023-04-03T00:13:52.497Z,20.00
2023-04-03T00:16:25.601Z,20.00
2023-04-03T00:18:58.516Z,20.00
2023-04-03T00:21:31.706Z,20.00
2023-04-03T00:24:04.648Z,20.10
2023-04-03T00:26:42.886Z,20.10
2023-04-03T00:29:15.898Z,20.00
2023-04-03T00:31:48.862Z,20.00
2023-04-03T00:34:22.577Z,20.00
2023-04-03T00:36:55.691Z,20.00
2023-04-03T00:39:28.511Z,19.90
2023-04-03T00:42:01.843Z,19.90
2023-04-03T00:44:40.046Z,19.90
2023-04-03T00:47:14.860Z,19.80
2023-04-03T00:49:50.188Z,19.80
2023-04-03T00:52:29.081Z,19.80
2023-04-03T00:55:03.901Z,19.80
2023-04-03T00:57:38.300Z,19.80
2023-04-03T01:00:16.815Z,19.90
2023-04-03T01:02:55.239Z,19.90
2023-04-03T01:05:28.181Z,19.90
2023-04-03T01:08:01.437Z,19.90
2023-04-03T01:10:35.398Z,19.90
2023-04-03T01:13:10.503Z,19.90
2023-04-03T01:15:43.344Z,19.90
2023-04-03T01:18:16.179Z,19.90
2023-04-03T01:20:56.949Z,19.80
2023-04-03T01:23:44.317Z,19.80
2023-04-03T01:26:18.008Z,19.70
2023-04-03T01:28:50.978Z,19.70
2023-04-03T01:31:38.147Z,19.70
2023-04-03T01:34:11.058Z,19.70
2023-04-03T01:36:44.258Z,19.70
2023-04-03T01:39:18.756Z,19.70
2023-04-03T01:41:52.073Z,19.70
2023-04-03T01:44:24.933Z,19.70
2023-04-03T01:46:58.179Z,19.70
2023-04-03T01:49:31.229Z,19.70
2023-04-03T01:52:04.223Z,19.70
2023-04-03T01:54:37.604Z,19.70
2023-04-03T01:57:10.833Z,19.70
2023-04-03T01:59:43.954Z,19.70
2023-04-03T02:02:17.580Z,19.70
2023-04-03T02:04:50.692Z,19.70
2023-04-03T02:07:24.083Z,19.70
2023-04-03T02:09:57.317Z,19.70
2023-04-03T02:12:30.573Z,19.70
2023-04-03T02:15:08.317Z,19.80
2023-04-03T02:17:41.479Z,19.80
2023-04-03T02:20:14.683Z,19.90
2023-04-03T02:22:48.063Z,19.90
2023-04-03T02:25:21.236Z,19.90
2023-04-03T02:27:54.289Z,19.90
2023-04-03T02:30:27.171Z,19.90
2023-04-03T02:32:59.953Z,19.90
2023-04-03T02:35:33.034Z,19.90
2023-04-03T02:38:06.118Z,19.90
2023-04-03T02:40:39.338Z,19.90
2023-04-03T02:43:12.965Z,19.90
2023-04-03T02:45:45.885Z,19.90
2023-04-03T02:48:19.663Z,19.90
2023-04-03T02:50:52.724Z,19.90
2023-04-03T02:53:25.828Z,19.90
2023-04-03T02:55:58.782Z,19.90
2023-04-03T02:58:31.723Z,19.90
2023-04-03T03:01:04.690Z,19.90
2023-04-03T03:03:37.585Z,19.90
2023-04-03T03:06:12.136Z,19.80
2023-04-03T03:08:45.628Z,19.80
2023-04-03T03:11:18.515Z,19.80
2023-04-03T03:13:51.607Z,19.80
2023-04-03T03:16:24.569Z,19.70
2023-04-03T03:18:59.087Z,19.70
2023-04-03T03:21:32.483Z,19.70
2023-04-03T03:24:05.654Z,19.70
2023-04-03T03:26:38.635Z,19.70
2023-04-03T03:29:11.813Z,19.70
2023-04-03T03:31:44.746Z,19.70
2023-04-03T03:34:18.388Z,19.70
2023-04-03T03:36:51.700Z,19.60
2023-04-03T03:39:24.698Z,19.60
2023-04-03T03:41:57.693Z,19.60
2023-04-03T03:44:32.030Z,19.60
2023-04-03T03:47:05.917Z,19.60
2023-04-03T03:49:39.098Z,19.50
2023-04-03T03:52:13.076Z,19.50
2023-04-03T03:54:46.088Z,19.50
2023-04-03T03:57:19.172Z,19.50
2023-04-03T03:59:55.892Z,19.50
2023-04-03T04:02:29.040Z,19.40
2023-04-03T04:05:02.184Z,19.40
2023-04-03T04:07:35.302Z,19.40
2023-04-03T04:10:08.822Z,19.40
2023-04-03T04:12:41.856Z,19.40
2023-04-03T04:15:15.507Z,19.40
2023-04-03T04:17:48.651Z,19.40
2023-04-03T04:20:23.367Z,19.40
2023-04-03T04:22:56.428Z,19.40
2023-04-03T04:25:29.316Z,19.40
2023-04-03T04:28:02.281Z,19.40
2023-04-03T04:30:35.458Z,19.30
2023-04-03T04:33:08.266Z,19.30
2023-04-03T04:35:41.897Z,19.30
2023-04-03T04:38:14.998Z,19.20
2023-04-03T04:40:47.805Z,19.20
2023-04-03T04:43:20.881Z,19.20
2023-04-03T04:45:55.942Z,19.20
2023-04-03T04:48:31.401Z,19.20
2023-04-03T04:51:03.745Z,19.10
2023-04-03T04:53:36.593Z,19.10
2023-04-03T04:56:10.366Z,19.10
2023-04-03T04:58:43.579Z,19.10
2023-04-03T05:01:17.599Z,19.00
2023-04-03T05:03:50.838Z,19.00
2023-04-03T05:06:23.592Z,18.90
2023-04-03T05:08:56.278Z,18.90
2023-04-03T05:11:29.636Z,18.90
2023-04-03T05:14:02.668Z,18.90
2023-04-03T05:16:35.712Z,18.90
2023-04-03T05:19:08.676Z,18.80
2023-04-03T05:21:41.604Z,18.80
2023-04-03T05:24:14.652Z,18.80
2023-04-03T05:26:47.763Z,18.80
2023-04-03T05:29:20.884Z,18.80
2023-04-03T05:31:54.974Z,18.80
2023-04-03T05:34:27.912Z,18.80
2023-04-03T05:37:01.061Z,18.80
2023-04-03T05:39:37.898Z,18.80
2023-04-03T05:42:10.613Z,18.70
2023-04-03T05:44:43.754Z,18.70
2023-04-03T05:47:17.393Z,18.70
2023-04-03T05:49:50.934Z,18.70
2023-04-03T05:52:34.680Z,18.70
2023-04-03T05:55:08.044Z,18.60
2023-04-03T05:57:41.598Z,18.60
2023-04-03T06:00:15.858Z,18.60
2023-04-03T06:02:49.117Z,18.60
2023-04-03T06:05:22.394Z,18.50
2023-04-03T06:07:55.185Z,18.50
2023-04-03T06:10:28.226Z,18.50
2023-04-03T06:13:01.291Z,18.50
2023-04-03T06:15:34.255Z,18.50
2023-04-03T06:18:07.214Z,18.50
2023-04-03T06:20:40.491Z,18.50
2023-04-03T06:23:13.676Z,18.40
2023-04-03T06:25:46.583Z,18.40
2023-04-03T06:28:19.570Z,18.40
2023-04-03T06:30:52.523Z,18.40
2023-04-03T06:33:25.690Z,18.40
2023-04-03T06:36:06.771Z,18.30
2023-04-03T06:38:39.675Z,18.30
2023-04-03T06:41:12.839Z,18.30
2023-04-03T06:43:45.939Z,18.20
2023-04-03T06:46:23.196Z,18.20
2023-04-03T06:48:56.840Z,18.20
2023-04-03T06:51:31.814Z,18.20
2023-04-03T06:54:05.373Z,18.20
2023-04-03T06:56:38.595Z,18.10
2023-04-03T06:59:11.414Z,18.20
2023-04-03T07:01:44.803Z,18.20
2023-04-03T07:04:17.757Z,18.10
2023-04-03T07:06:50.915Z,18.10
2023-04-03T07:09:24.341Z,18.10
2023-04-03T07:11:57.186Z,18.10
2023-04-03T07:14:30.462Z,18.10
2023-04-03T07:17:03.604Z,18.00
2023-04-03T07:19:36.736Z,18.00
2023-04-03T07:22:09.953Z,18.00
2023-04-03T07:24:43.065Z,18.00
2023-04-03T07:27:16.049Z,18.00
2023-04-03T07:29:50.420Z,17.90
2023-04-03T07:32:23.444Z,17.90
2023-04-03T07:34:56.429Z,17.90
2023-04-03T07:37:29.551Z,17.90
2023-04-03T07:40:02.825Z,17.90
2023-04-03T07:42:35.882Z,17.90
2023-04-03T07:45:09.779Z,17.90
2023-04-03T07:47:43.382Z,17.90
2023-04-03T07:50:17.362Z,17.80
2023-04-03T07:52:50.607Z,17.90
2023-04-03T07:55:23.712Z,17.90
2023-04-03T07:57:56.697Z,17.90
2023-04-03T08:00:29.931Z,17.90
2023-04-03T08:03:02.932Z,17.80
2023-04-03T08:05:36.025Z,17.80
2023-04-03T08:08:09.365Z,17.80
2023-04-03T08:10:42.818Z,17.80
2023-04-03T08:13:15.847Z,17.80
2023-04-03T08:15:48.812Z,17.80
2023-04-03T08:18:23.278Z,17.80
2023-04-03T08:20:56.404Z,17.80
2023-04-03T08:23:29.427Z,17.80
2023-04-03T08:26:02.279Z,17.80
2023-04-03T08:28:35.123Z,17.80
2023-04-03T08:31:14.312Z,17.80
2023-04-03T08:33:47.148Z,17.80
2023-04-03T08:36:28.075Z,17.80
2023-04-03T08:39:01.347Z,17.80
2023-04-03T08:41:35.862Z,17.80
2023-04-03T08:44:22.726Z,17.80
2023-04-03T08:47:21.862Z,17.80
2023-04-03T08:50:03.820Z,17.80
2023-04-03T08:52:50.634Z,17.80
2023-04-03T08:55:28.301Z,17.80
2023-04-03T08:58:09.259Z,17.80
2023-04-03T09:00:44.304Z,17.90
2023-04-03T09:03:22.087Z,17.90
2023-04-03T09:06:06.349Z,17.90
2023-04-03T09:08:47.231Z,17.90
2023-04-03T09:11:43.326Z,17.90
2023-04-03T09:14:42.798Z,17.80
2023-04-03T09:17:37.342Z,17.80
2023-04-03T09:20:12.209Z,17.80
2023-04-03T09:22:53.059Z,17.80
2023-04-03T09:25:36.358Z,17.80
2023-04-03T09:28:11.323Z,17.80
2023-04-03T09:30:44.540Z,17.80
2023-04-03T09:33:18.517Z,17.80
2023-04-03T09:35:52.596Z,17.80
2023-04-03T09:38:27.525Z,17.80
2023-04-03T09:41:14.142Z,17.80
2023-04-03T09:43:49.252Z,17.90
2023-04-03T09:46:36.655Z,17.90
2023-04-03T09:49:10.226Z,17.80
2023-04-03T09:51:43.794Z,17.80
2023-04-03T09:54:41.229Z,17.90
2023-04-03T09:57:16.391Z,17.90
2023-04-03T09:59:54.345Z,17.90
2023-04-03T10:02:29.571Z,17.90
2023-04-03T10:07:44.395Z,17.90
2023-04-03T10:10:32.690Z,17.90
2023-04-03T10:13:20.179Z,17.90
2023-04-03T10:16:07.998Z,17.90
2023-04-03T10:18:57.919Z,17.90
2023-04-03T10:21:38.853Z,17.90
2023-04-03T10:24:14.333Z,18.00
2023-04-03T10:27:11.823Z,18.00
2023-04-03T10:30:06.337Z,18.00
2023-04-03T10:32:59.528Z,18.00
2023-04-03T10:36:06.034Z,18.00
2023-04-03T10:38:53.489Z,18.00
2023-04-03T10:41:46.241Z,18.00
2023-04-03T10:44:36.569Z,18.00
2023-04-03T10:47:13.998Z,18.00
2023-04-03T10:49:59.432Z,18.00
2023-04-03T10:52:50.059Z,18.10
2023-04-03T10:55:28.563Z,18.10
2023-04-03T10:58:03.269Z,18.10
2023-04-03T11:00:50.324Z,18.10
2023-04-03T11:03:28.521Z,18.10
2023-04-03T11:06:02.936Z,18.10
2023-04-03T11:08:43.744Z,18.10
2023-04-03T11:11:21.641Z,18.10
2023-04-03T11:14:08.350Z,18.20
2023-04-03T11:16:53.638Z,18.20
2023-04-03T11:19:28.073Z,18.20
2023-04-03T11:22:05.143Z,18.20
2023-04-03T11:24:40.409Z,18.20
2023-04-03T11:27:15.198Z,18.20
2023-04-03T11:29:49.813Z,18.20
2023-04-03T11:32:33.351Z,18.20
2023-04-03T11:35:08.427Z,18.20
2023-04-03T11:37:48.767Z,18.20
2023-04-03T11:40:26.600Z,18.20
2023-04-03T11:43:01.425Z,18.20
2023-04-03T11:45:42.121Z,18.20
2023-04-03T11:48:34.701Z,18.20
2023-04-03T11:51:22.021Z,18.20
2023-04-03T11:53:55.101Z,18.20
2023-04-03T11:56:33.893Z,18.10
2023-04-03T11:59:19.841Z,18.10
2023-04-03T12:01:54.999Z,18.10
2023-04-03T12:04:30.082Z,18.10
2023-04-03T12:07:11.532Z,18.10
2023-04-03T12:09:54.080Z,18.10
2023-04-03T12:12:41.813Z,18.10
2023-04-03T12:15:31.706Z,18.10
2023-04-03T12:18:06.096Z,18.10
2023-04-03T12:20:57.974Z,18.10
2023-04-03T12:23:41.405Z,18.00
2023-04-03T12:26:38.460Z,18.00
2023-04-03T12:29:07.270Z,18.00
2023-04-03T12:31:44.565Z,18.00
2023-04-03T12:34:45.382Z,18.00
2023-04-03T12:37:42.533Z,18.00
2023-04-03T12:40:30.340Z,18.00
2023-04-03T12:43:24.418Z,18.00
2023-04-03T12:46:14.992Z,18.00
2023-04-03T12:48:59.073Z,18.00
2023-04-03T12:51:45.646Z,17.90
2023-04-03T12:54:33.068Z,17.90
2023-04-03T12:57:31.536Z,17.90
2023-04-03T13:00:06.671Z,17.90
2023-04-03T13:02:40.671Z,17.90
2023-04-03T13:05:15.629Z,17.90
2023-04-03T13:07:49.324Z,17.80
2023-04-03T13:10:23.360Z,17.90
2023-04-03T13:13:01.487Z,17.90
2023-04-03T13:15:36.806Z,17.90
2023-04-03T13:18:12.777Z,17.90
2023-04-03T13:20:45.886Z,17.90
2023-04-03T13:23:21.123Z,17.90
2023-04-03T13:25:54.374Z,17.90
2023-04-03T13:28:28.914Z,17.80
2023-04-03T13:31:31.161Z,17.80
2023-04-03T13:34:15.537Z,17.90
2023-04-03T13:36:56.629Z,17.80
2023-04-03T13:39:32.092Z,17.80
2023-04-03T13:42:07.653Z,17.80
2023-04-03T13:44:42.397Z,17.80
2023-04-03T13:47:20.222Z,17.80
2023-04-03T13:50:07.771Z,17.80
2023-04-03T13:52:49.057Z,17.80
2023-04-03T13:55:33.845Z,17.80
2023-04-03T13:58:18.176Z,17.80
2023-04-03T14:00:56.402Z,17.80
2023-04-03T14:03:34.976Z,17.80
2023-04-03T14:06:12.249Z,17.80
2023-04-03T14:08:45.355Z,17.80
2023-04-03T14:11:25.386Z,17.80
2023-04-03T14:14:00.253Z,17.80
2023-04-03T14:16:35.913Z,17.80
2023-04-03T14:19:09.331Z,17.80
2023-04-03T14:21:42.403Z,17.80
2023-04-03T14:24:15.426Z,17.80
2023-04-03T14:26:49.275Z,17.80
2023-04-03T14:29:22.799Z,17.80
2023-04-03T14:32:07.872Z,17.80
2023-04-03T14:34:30.578Z,17.70
2023-04-03T14:37:03.533Z,17.70
2023-04-03T14:39:37.870Z,17.70
2023-04-03T14:42:15.110Z,17.70
2023-04-03T14:44:52.262Z,17.70
2023-04-03T14:47:31.090Z,17.70
2023-04-03T14:50:01.304Z,17.70
2023-04-03T14:52:35.966Z,17.70
2023-04-03T14:55:10.857Z,17.70
2023-04-03T14:57:44.100Z,17.70
2023-04-03T15:00:21.868Z,17.70
2023-04-03T15:02:55.317Z,17.70
2023-04-03T15:05:28.289Z,17.70
2023-04-03T15:08:03.372Z,17.70
2023-04-03T15:10:37.145Z,17.70
2023-04-03T15:13:10.098Z,17.60
2023-04-03T15:15:43.029Z,17.60
2023-04-03T15:18:18.047Z,17.60
2023-04-03T15:20:51.184Z,17.60
2023-04-03T15:23:25.410Z,17.60
2023-04-03T15:25:58.755Z,17.60
2023-04-03T15:28:39.874Z,17.60
2023-04-03T15:31:13.830Z,17.60
2023-04-03T15:33:49.255Z,17.60
2023-04-03T15:36:33.433Z,17.60
2023-04-03T15:38:56.509Z,17.60
2023-04-03T15:41:29.461Z,17.60
2023-04-03T15:44:02.483Z,17.60
2023-04-03T15:46:36.649Z,17.60
2023-04-03T15:49:10.033Z,17.60
2023-04-03T15:51:42.994Z,17.60
2023-04-03T15:54:15.940Z,17.60
2023-04-03T15:56:49.408Z,17.60
2023-04-03T15:59:22.545Z,17.60
2023-04-03T16:01:56.520Z,17.60
2023-04-03T16:04:29.563Z,17.60
2023-04-03T16:07:04.114Z,17.60
2023-04-03T16:09:38.487Z,17.60
2023-04-03T16:12:11.471Z,17.60
2023-04-03T16:14:44.508Z,17.60
2023-04-03T16:17:17.607Z,17.50
2023-04-03T16:19:50.515Z,17.60
2023-04-03T16:22:23.520Z,17.50
2023-04-03T16:24:58.961Z,17.50
2023-04-03T16:27:33.912Z,17.50
2023-04-03T16:30:11.004Z,17.50
2023-04-03T16:32:44.607Z,17.50
2023-04-03T16:35:17.473Z,17.50
2023-04-03T16:37:50.312Z,17.50
2023-04-03T16:40:23.239Z,17.50
2023-04-03T16:42:56.243Z,17.40
2023-04-03T16:45:28.960Z,17.40
2023-04-03T16:48:02.105Z,17.40
2023-04-03T16:50:35.481Z,17.40
2023-04-03T16:53:09.565Z,17.40
2023-04-03T16:55:43.033Z,17.40
2023-04-03T16:58:16.044Z,17.40
2023-04-03T17:00:50.134Z,17.40
2023-04-03T17:03:23.214Z,17.30
2023-04-03T17:05:56.014Z,17.30
2023-04-03T17:08:29.074Z,17.30
2023-04-03T17:11:02.031Z,17.30
2023-04-03T17:13:36.254Z,17.30
2023-04-03T17:16:14.201Z,17.30
2023-04-03T17:18:47.109Z,17.30
2023-04-03T17:21:20.654Z,17.20
2023-04-03T17:23:55.555Z,17.20
2023-04-03T17:26:28.529Z,17.20
2023-04-03T17:29:01.444Z,17.20
2023-04-03T17:31:34.416Z,17.20
2023-04-03T17:34:07.401Z,17.20
2023-04-03T17:36:40.467Z,17.20
2023-04-03T17:39:13.644Z,17.10
2023-04-03T17:41:47.931Z,17.10
2023-04-03T17:44:20.790Z,17.10
2023-04-03T17:46:53.909Z,17.10
2023-04-03T17:49:27.210Z,17.10
2023-04-03T17:52:00.439Z,17.10
2023-04-03T17:54:33.510Z,17.10
2023-04-03T17:57:06.554Z,17.10
2023-04-03T17:59:39.630Z,17.10
2023-04-03T18:02:13.361Z,17.00
2023-04-03T18:04:46.385Z,17.00
2023-04-03T18:07:19.373Z,17.00
2023-04-03T18:09:54.243Z,17.00
2023-04-03T18:12:27.292Z,17.00
2023-04-03T18:15:00.233Z,17.00
2023-04-03T18:17:33.053Z,17.00
2023-04-03T18:20:07.174Z,17.00
2023-04-03T18:22:40.141Z,17.00
2023-04-03T18:25:14.368Z,16.90
2023-04-03T18:27:48.403Z,16.90
2023-04-03T18:30:22.187Z,16.90
2023-04-03T18:32:55.171Z,16.90
2023-04-03T18:35:28.138Z,16.90
2023-04-03T18:38:01.245Z,16.90
2023-04-03T18:40:35.222Z,16.90
2023-04-03T18:43:08.752Z,16.90
2023-04-03T18:45:42.235Z,16.90
2023-04-03T18:48:15.703Z,16.80
2023-04-03T18:50:49.160Z,16.80
2023-04-03T18:53:22.193Z,16.80
2023-04-03T18:55:54.975Z,16.80
2023-04-03T18:58:28.260Z,16.80
2023-04-03T19:01:03.680Z,16.80
2023-04-03T19:03:37.757Z,16.80
2023-04-03T19:06:11.889Z,16.80
2023-04-03T19:08:44.715Z,16.80
2023-04-03T19:11:20.086Z,16.80
2023-04-03T19:14:10.375Z,16.80
2023-04-03T19:16:27.118Z,16.80
2023-04-03T19:19:00.222Z,16.80
2023-04-03T19:21:33.109Z,16.80
2023-04-03T19:24:06.148Z,16.80
2023-04-03T19:26:39.213Z,16.80
2023-04-03T19:29:12.105Z,16.80
2023-04-03T19:31:45.138Z,16.80
2023-04-03T19:34:18.183Z,16.80
2023-04-03T19:36:51.394Z,16.80
2023-04-03T19:39:24.463Z,16.90
2023-04-03T19:41:57.639Z,16.90
2023-04-03T19:44:31.054Z,17.00
2023-04-03T19:47:05.064Z,17.00
2023-04-03T19:49:38.053Z,17.10
2023-04-03T19:52:10.946Z,17.10
2023-04-03T19:54:43.831Z,17.20
2023-04-03T19:57:17.307Z,17.20
2023-04-03T19:59:50.294Z,17.30
2023-04-03T20:02:23.653Z,17.30
2023-04-03T20:04:59.498Z,17.30
2023-04-03T20:07:32.592Z,17.40
2023-04-03T20:10:08.083Z,17.40
2023-04-03T20:12:41.383Z,17.40
2023-04-03T20:15:15.657Z,17.50
2023-04-03T20:17:48.471Z,17.50
2023-04-03T20:20:21.482Z,17.60
2023-04-03T20:22:55.800Z,17.60
2023-04-03T20:25:48.080Z,17.70
2023-04-03T20:28:03.451Z,17.70
2023-04-03T20:30:36.385Z,17.70
2023-04-03T20:33:09.303Z,17.80
2023-04-03T20:35:46.709Z,17.80
2023-04-03T20:38:20.239Z,17.80
2023-04-03T20:40:53.117Z,17.80
2023-04-03T20:43:26.147Z,17.80
2023-04-03T20:45:59.193Z,17.80
2023-04-03T20:48:32.063Z,17.90
2023-04-03T20:51:13.261Z,17.90
2023-04-03T20:53:46.263Z,17.90
2023-04-03T20:56:19.851Z,18.00
2023-04-03T20:58:53.058Z,18.00
2023-04-03T21:01:27.083Z,18.00
2023-04-03T21:04:05.777Z,18.00
2023-04-03T21:07:13.420Z,18.10
2023-04-03T21:10:21.717Z,18.10
2023-04-03T21:13:29.570Z,18.10
2023-04-03T21:16:05.604Z,18.10
2023-04-03T21:18:50.102Z,18.20
2023-04-03T21:21:27.983Z,18.20
2023-04-03T21:24:01.073Z,18.20
2023-04-03T21:26:39.565Z,18.30
2023-04-03T21:29:13.317Z,18.30
2023-04-03T21:31:54.452Z,18.30
2023-04-03T21:34:31.356Z,18.30
2023-04-03T21:37:09.659Z,18.40
2023-04-03T21:39:46.755Z,18.50
2023-04-03T21:42:19.746Z,18.50
2023-04-03T21:44:52.897Z,18.60
2023-04-03T21:47:25.843Z,18.70
2023-04-03T21:49:59.016Z,18.70
2023-04-03T21:52:31.693Z,18.70
2023-04-03T21:55:04.838Z,18.70
2023-04-03T21:57:42.540Z,18.70
2023-04-03T22:00:16.529Z,18.70
2023-04-03T22:02:51.277Z,18.70
2023-04-03T22:05:24.760Z,18.80
2023-04-03T22:07:57.799Z,18.80
2023-04-03T22:10:31.390Z,18.80
2023-04-03T22:13:08.637Z,18.90
2023-04-03T22:15:43.775Z,19.00
2023-04-03T22:18:16.535Z,19.10
2023-04-03T22:20:53.742Z,19.10
2023-04-03T22:23:27.056Z,19.20
2023-04-03T22:26:11.156Z,19.20
2023-04-03T22:28:46.180Z,19.20
2023-04-03T22:31:19.340Z,19.30
2023-04-03T22:33:52.137Z,19.40
2023-04-03T22:36:25.033Z,19.40
2023-04-03T22:38:59.164Z,19.40
2023-04-03T22:41:32.378Z,19.40
2023-04-03T22:44:05.391Z,19.40
2023-04-03T22:46:38.253Z,19.50
2023-04-03T22:49:11.231Z,19.50
2023-04-03T22:51:44.192Z,19.50
2023-04-03T22:54:17.189Z,19.50
2023-04-03T22:56:50.592Z,19.60
2023-04-03T22:59:23.695Z,19.70
2023-04-03T23:01:56.476Z,19.70
2023-04-03T23:04:29.186Z,19.70
2023-04-03T23:07:02.144Z,19.70
2023-04-03T23:09:35.150Z,19.80
2023-04-03T23:12:08.235Z,19.80
2023-04-03T23:14:45.326Z,19.90
2023-04-03T23:17:18.195Z,20.00
2023-04-03T23:19:51.724Z,20.00
2023-04-03T23:22:24.662Z,20.10
2023-04-03T23:24:57.607Z,20.20
2023-04-03T23:27:30.585Z,20.20
2023-04-03T23:30:03.526Z,20.20
2023-04-03T23:32:36.773Z,20.30
2023-04-03T23:35:10.767Z,20.30
2023-04-03T23:37:44.543Z,20.20
2023-04-03T23:40:17.814Z,20.30
2023-04-03T23:42:50.668Z,20.40
2023-04-03T23:45:23.584Z,20.40
2023-04-03T23:47:56.588Z,20.40
2023-04-03T23:50:29.699Z,20.40
2023-04-03T23:53:02.938Z,20.50
2023-04-03T23:55:35.753Z,20.50
2023-04-03T23:58:13.403Z,20.50
